Reedley, CA

11:13 PM PDT on August 19, 2014 (GMT -0700)
Dinuba | Change Station
CLOSE
Current Station
Personal Weather Station
Location: Dinuba, CA
Elevation: 358 ft
Nearby Weather Stations

Elev 358 ft 36.56 °N, 119.41 °W | Updated 5 minutes ago

Mostly Cloudy
Mostly Cloudy
75.9 °F
Feels Like 78 °F
N
1.1
Wind Variable Wind from SSW

Today
High -- | Low -- °F
--% Chance of Precip.
Yesterday
High -- | Low -- °F
Precip. -- in
6:18 AM 7:43 PM
Waning Crescent, 24% visible
Pressure 29.77 in
Visibility 10.0 miles
Clouds Few 13000 ft
Mostly Cloudy 15000 ft
Heat Index 78 °F
Dew Point 58 °F
Humidity 54%
Rainfall 0.00 in
Snow Depth Not available.
UV 0 out of 12
Pollen 8.80 out of 12
Ozone Good
Flu Activity Not available.
METAR KFAT 200553Z 31009KT 10SM FEW130 BKN150 25/13 A2978 RMK AO2 SLP080 T02500128 10344 20250 51018

More Conditions Fewer Conditions

Pressure 29.77 in
Visibility 10.0 miles
Clouds Few 13000 ft
Mostly Cloudy 15000 ft
Heat Index 78 °F
Dew Point 58 °F
Humidity 54%
Rainfall 0.00 in
Snow Depth Not available.
UV 0 out of 12
Pollen 8.80 out of 12
Ozone Good
Flu Activity Not available.
METAR KFAT 200553Z 31009KT 10SM FEW130 BKN150 25/13 A2978 RMK AO2 SLP080 T02500128 10344 20250 51018

More Conditions Fewer Conditions

10-Day Weather Forecast

Almanac

Astronomy

Aug. 19, 2014 Rise Set
Actual Time 6:18 AM PDT 7:43 PM PDT
Civil Twilight 5:51 AM PDT 8:10 PM PDT
Nautical Twilight 5:18 AM PDT 8:43 PM PDT
Astronomical Twilight 4:44 AM PDT 9:17 PM PDT
Moon 1:17 AM PDT (8/19) 3:41 PM PDT (8/19)
Length of Visible Light 14h 19m
Length of Day
13h 24m
Tomorrow will be 2m 6s shorter.
Waning Crescent, 24% of the Moon is Illuminated
Aug 20
Waning Crescent
Aug 25
New
Sep 2
First Quarter
Sep 8
Full
Sep 15
Last Quarter

Community

WunderPhotos

Upload Photos

1,745,592 photos uploaded!

Nearby

Air Quality

  Air Quality AQ Index Pollutant
Yesterday Moderate
OZONE
Current Good
OZONE
Tuesday Good
OZONE
Wednesday Moderate
PM2.5
Thursday Moderate
PM2.5
Friday Moderate
PM2.5
Saturday Moderate
PM2.5
Sunday Moderate
PM2.5

Snow Depth

Station Depth Elevation
Leavitt Lake 1 in 9400 ft
Leavitt Meadows 1 in 7200 ft
Blue Lakes 0 in 8000 ft
Monitor Pass 0 in 8350 ft
Forestdale Creek 0 in 8029 ft

Earthquake Activity

City Distance Mag. Time & Date
Kettleman City, California 50 miles 2.9 11:32 PM PDT
2014-08-14
King City, California 81 miles 2.9 8:01 PM PDT
2014-08-14
Mariposa, California 62 miles 2.5 4:54 AM PDT
2014-08-14
Mariposa, California 61 miles 2.7 3:31 AM PDT
2014-08-14
Minimum magnitude displayed is 2.5.

Coastal Water Temperatures

Place Temperature
No Stations Reporting

Nearby Weather Stations